createdAt,value
2022-08-26T00:00:19.880Z,73.3
2022-08-26T00:01:24.282Z,73.5
2022-08-26T00:02:23.392Z,73.7
2022-08-26T00:03:25.125Z,73.8
2022-08-26T00:04:27.321Z,73.8
2022-08-26T00:05:29.358Z,74
2022-08-26T00:06:31.150Z,74.2
2022-08-26T00:07:33.213Z,74
2022-08-26T00:08:35.106Z,74.1
2022-08-26T00:09:39.119Z,74
2022-08-26T00:10:39.374Z,73.8
2022-08-26T00:11:40.960Z,73.7
2022-08-26T00:12:41.938Z,73.6
2022-08-26T00:13:46.536Z,73.7
2022-08-26T00:14:44.002Z,73.8
2022-08-26T00:15:44.958Z,73.8
2022-08-26T00:16:47.094Z,73.7
2022-08-26T00:17:46.957Z,73.7
2022-08-26T00:18:47.956Z,73.7
2022-08-26T00:19:48.980Z,73.8
2022-08-26T00:20:50.016Z,73.8
2022-08-26T00:21:51.294Z,73.8
2022-08-26T00:22:51.955Z,74
2022-08-26T00:23:53.189Z,74
2022-08-26T00:24:55.035Z,74
2022-08-26T00:25:56.810Z,74
2022-08-26T00:26:56.975Z,74.1
2022-08-26T00:27:57.978Z,74.1
2022-08-26T00:28:59.013Z,74.1
2022-08-26T00:30:00.010Z,74.1
2022-08-26T00:31:00.997Z,74
2022-08-26T00:32:02.099Z,74
2022-08-26T00:33:02.987Z,73.9
2022-08-26T00:34:04.038Z,73.8
2022-08-26T00:35:05.062Z,73.6
2022-08-26T00:36:06.044Z,73.6
2022-08-26T00:37:09.097Z,73.6
2022-08-26T00:38:08.015Z,73.7
2022-08-26T00:39:08.991Z,73.6
2022-08-26T00:40:10.055Z,73.6
2022-08-26T00:41:11.070Z,73.6
2022-08-26T00:42:11.987Z,73.5
2022-08-26T00:43:13.035Z,73.4
2022-08-26T00:44:14.006Z,73.5
2022-08-26T00:45:15.009Z,73.4
2022-08-26T00:46:16.095Z,73.4
2022-08-26T00:47:17.037Z,73.7
2022-08-26T00:48:18.013Z,73.8
2022-08-26T00:49:19.024Z,73.9
2022-08-26T00:50:20.065Z,73.9
2022-08-26T00:51:21.054Z,74.1
2022-08-26T00:52:22.035Z,74.5
2022-08-26T00:53:23.955Z,74.7
2022-08-26T00:54:24.079Z,74.9
2022-08-26T00:55:25.058Z,75
2022-08-26T00:56:26.003Z,75.1
2022-08-26T00:57:27.052Z,75.1
2022-08-26T00:58:28.019Z,74.9
2022-08-26T00:59:29.032Z,74.8
2022-08-26T01:00:30.092Z,74.5
2022-08-26T01:01:31.087Z,74.4
2022-08-26T01:02:32.095Z,74.2
2022-08-26T01:03:33.090Z,74.2
2022-08-26T01:04:34.034Z,74.4
2022-08-26T01:05:35.178Z,74.7
2022-08-26T01:06:37.076Z,74.8
2022-08-26T01:07:38.035Z,75.1
2022-08-26T01:08:39.038Z,75.2
2022-08-26T01:09:40.063Z,75.4
2022-08-26T01:10:41.083Z,75.2
2022-08-26T01:11:42.756Z,75.3
2022-08-26T01:12:44.042Z,75.6
2022-08-26T01:13:45.054Z,75.8
2022-08-26T01:14:46.490Z,75.8
2022-08-26T01:15:48.144Z,76
2022-08-26T01:16:49.201Z,76.2
2022-08-26T01:17:50.074Z,76.2
2022-08-26T01:18:51.061Z,76.1
2022-08-26T01:19:52.229Z,76
2022-08-26T01:20:53.068Z,75.8
2022-08-26T01:21:54.128Z,75.5
2022-08-26T01:22:55.101Z,75.5
2022-08-26T01:23:57.609Z,75.4
2022-08-26T01:24:57.072Z,75.3
2022-08-26T01:25:58.092Z,75.2
2022-08-26T01:26:59.146Z,75.2
2022-08-26T01:28:00.084Z,75.1
2022-08-26T01:29:01.153Z,75.1
2022-08-26T01:30:02.135Z,74.9
2022-08-26T01:31:03.085Z,74.7
2022-08-26T01:32:05.087Z,74.5
2022-08-26T01:33:05.089Z,74.3
2022-08-26T01:34:06.127Z,74.3
2022-08-26T01:35:07.103Z,74.2
2022-08-26T01:36:08.110Z,74.2
2022-08-26T01:37:09.146Z,74.2
2022-08-26T01:38:10.092Z,74.2
2022-08-26T01:39:11.139Z,74.3
2022-08-26T01:40:12.203Z,74.3
2022-08-26T01:41:16.011Z,74.4
2022-08-26T01:42:14.095Z,74.3
2022-08-26T01:43:15.092Z,74.4
2022-08-26T01:44:16.134Z,74.3
2022-08-26T01:45:17.191Z,74.5
2022-08-26T01:46:18.215Z,74.7
2022-08-26T01:47:19.111Z,75
2022-08-26T01:48:20.111Z,75.3
2022-08-26T01:49:21.144Z,75.3
2022-08-26T01:50:27.965Z,75.3
2022-08-26T01:51:23.191Z,75.2
2022-08-26T01:52:24.167Z,75.1
2022-08-26T01:53:25.128Z,74.8
2022-08-26T01:54:26.154Z,74.9
2022-08-26T01:55:32.563Z,75.1
2022-08-26T01:56:33.234Z,75.1
2022-08-26T01:57:29.227Z,75.1
2022-08-26T01:58:30.135Z,75
2022-08-26T01:59:31.132Z,74.9
2022-08-26T02:00:32.304Z,74.7
2022-08-26T02:01:33.143Z,74.7
2022-08-26T02:02:34.173Z,74.7
2022-08-26T02:03:35.199Z,74.6
2022-08-26T02:04:36.172Z,74.7
2022-08-26T02:05:37.176Z,74.5
2022-08-26T02:06:38.158Z,74.5
2022-08-26T02:07:39.248Z,74.5
2022-08-26T02:08:41.192Z,74.5
2022-08-26T02:09:42.152Z,74.6
2022-08-26T02:10:43.302Z,74.5
2022-08-26T02:11:45.150Z,74.5
2022-08-26T02:12:46.220Z,74.5
2022-08-26T02:13:48.211Z,74.5
2022-08-26T02:14:49.174Z,74.5
2022-08-26T02:15:50.137Z,74.4
2022-08-26T02:16:51.150Z,74.3
2022-08-26T02:17:52.629Z,74.3
2022-08-26T02:18:53.401Z,74.4
2022-08-26T02:19:54.162Z,74.5
2022-08-26T02:22:45.125Z,74.5
2022-08-26T02:23:45.523Z,74.2
2022-08-26T02:24:46.183Z,74.1
2022-08-26T02:25:47.229Z,74.2
2022-08-26T02:26:48.189Z,74.3
2022-08-26T02:27:49.194Z,74.5
2022-08-26T02:28:50.244Z,74.7
2022-08-26T02:29:51.203Z,75
2022-08-26T02:30:52.209Z,75.2
2022-08-26T02:31:53.245Z,75.6
2022-08-26T02:32:54.209Z,75.9
2022-08-26T02:33:55.224Z,76.1
2022-08-26T02:34:56.234Z,76.1
2022-08-26T02:35:57.237Z,76
2022-08-26T02:36:58.209Z,76
2022-08-26T02:37:59.205Z,76.1
2022-08-26T02:39:00.470Z,76
2022-08-26T02:40:02.315Z,76
2022-08-26T02:41:03.248Z,75.8
2022-08-26T02:42:04.255Z,75.7
2022-08-26T02:43:05.223Z,75.6
2022-08-26T02:44:06.205Z,75.3
2022-08-26T02:45:07.277Z,75.2
2022-08-26T02:46:08.271Z,75.1
2022-08-26T02:47:09.303Z,75
2022-08-26T02:48:10.307Z,75
2022-08-26T02:49:11.238Z,74.9
2022-08-26T02:50:12.226Z,74.9
2022-08-26T02:51:13.226Z,74.9
2022-08-26T02:52:14.243Z,74.8
2022-08-26T02:53:15.234Z,74.7
2022-08-26T02:54:16.258Z,74.6
2022-08-26T02:55:17.256Z,74.5
2022-08-26T02:56:18.328Z,74.5
2022-08-26T02:57:19.246Z,74.3
2022-08-26T02:58:20.609Z,74.1
2022-08-26T02:59:24.336Z,74.1
2022-08-26T03:00:23.779Z,74
2022-08-26T03:01:24.388Z,74
2022-08-26T03:02:25.302Z,74
2022-08-26T03:03:26.265Z,74
2022-08-26T03:04:27.272Z,74.2
2022-08-26T03:05:28.243Z,74.2
2022-08-26T03:06:29.309Z,74.3
2022-08-26T03:07:30.246Z,74.3
2022-08-26T03:08:31.266Z,74.2
2022-08-26T03:09:32.253Z,74.2
2022-08-26T03:10:33.258Z,74.1
2022-08-26T03:11:34.292Z,74
2022-08-26T03:12:35.252Z,74
2022-08-26T03:13:36.256Z,74
2022-08-26T03:14:37.297Z,74
2022-08-26T03:15:38.273Z,74.1
2022-08-26T03:16:39.252Z,74.3
2022-08-26T03:17:40.383Z,74.4
2022-08-26T03:18:42.267Z,74.5
2022-08-26T03:19:43.289Z,74.7
2022-08-26T03:20:44.529Z,74.7
2022-08-26T03:21:47.286Z,75.1
2022-08-26T03:22:46.318Z,75.4
2022-08-26T03:23:47.281Z,75.5
2022-08-26T03:24:48.277Z,75.4
2022-08-26T03:25:49.287Z,75.6
2022-08-26T03:26:52.260Z,75.9
2022-08-26T03:27:51.330Z,76.1
2022-08-26T03:28:52.272Z,76.3
2022-08-26T03:29:53.765Z,76.3
2022-08-26T03:30:54.378Z,76.3
2022-08-26T03:31:55.297Z,76.2
2022-08-26T03:32:56.330Z,76.1
2022-08-26T03:33:59.699Z,76
2022-08-26T03:34:58.329Z,75.9
2022-08-26T03:35:59.294Z,75.7
2022-08-26T03:37:00.304Z,75.5
2022-08-26T03:38:01.301Z,75.4
2022-08-26T03:39:02.351Z,75.5
2022-08-26T03:40:03.486Z,75.4
2022-08-26T03:41:04.308Z,75.2
2022-08-26T03:42:05.360Z,75.1
2022-08-26T03:43:06.378Z,75.1
2022-08-26T03:44:07.381Z,75.2
2022-08-26T03:45:08.391Z,75.4
2022-08-26T03:46:09.349Z,75.6
2022-08-26T03:47:10.326Z,75.7
2022-08-26T03:48:11.332Z,75.8
2022-08-26T03:49:12.320Z,75.8
2022-08-26T03:50:13.347Z,75.7
2022-08-26T03:51:14.392Z,75.5
2022-08-26T03:52:15.318Z,75.3
2022-08-26T03:53:16.340Z,75.2
2022-08-26T03:54:17.347Z,75
2022-08-26T03:55:18.337Z,75
2022-08-26T03:56:19.370Z,74.9
2022-08-26T03:57:20.330Z,74.8
2022-08-26T03:58:21.333Z,74.6
2022-08-26T03:59:22.338Z,74.6
2022-08-26T04:00:24.294Z,74.5
2022-08-26T04:01:25.445Z,74.5
2022-08-26T04:02:26.383Z,74.2
2022-08-26T04:03:27.406Z,74.1
2022-08-26T04:04:28.336Z,74.1
2022-08-26T04:05:29.385Z,74.2
2022-08-26T04:06:30.342Z,74.3
2022-08-26T04:07:31.917Z,74.4
2022-08-26T04:08:32.358Z,74.5
2022-08-26T04:09:35.119Z,74.5
2022-08-26T04:10:34.367Z,74.5
2022-08-26T04:11:35.365Z,74.5
2022-08-26T04:12:36.403Z,74.5
2022-08-26T04:13:37.415Z,74.5
2022-08-26T04:14:38.412Z,74.6
2022-08-26T04:15:39.389Z,74.6
2022-08-26T04:16:40.460Z,74.5
2022-08-26T04:17:42.352Z,74.5
2022-08-26T04:18:46.735Z,74.6
2022-08-26T04:19:44.378Z,74.5
2022-08-26T04:20:45.398Z,74.5
2022-08-26T04:21:46.488Z,74.4
2022-08-26T04:22:48.395Z,74.4
2022-08-26T04:23:49.392Z,74.3
2022-08-26T04:24:50.392Z,74.3
2022-08-26T04:25:51.380Z,74.4
2022-08-26T04:26:52.470Z,74.6
2022-08-26T04:27:53.393Z,74.8
2022-08-26T04:28:54.384Z,74.8
2022-08-26T04:29:55.526Z,74.8
2022-08-26T04:30:56.457Z,74.8
2022-08-26T04:31:57.410Z,74.8
2022-08-26T04:32:58.393Z,74.7
2022-08-26T04:33:59.387Z,74.5
2022-08-26T04:35:01.798Z,74.2
2022-08-26T04:36:01.454Z,74
2022-08-26T04:37:02.498Z,74.1
2022-08-26T04:38:04.418Z,74.2
2022-08-26T04:39:05.408Z,74.5
2022-08-26T04:40:06.798Z,74.8
2022-08-26T04:41:15.128Z,74.9
2022-08-26T04:42:09.438Z,75
2022-08-26T04:43:10.436Z,75
2022-08-26T04:44:11.665Z,74.9
2022-08-26T04:45:13.444Z,74.7
2022-08-26T04:46:14.501Z,74.4
2022-08-26T04:47:15.446Z,74.1
2022-08-26T04:48:16.748Z,73.8
2022-08-26T04:49:17.472Z,73.7
2022-08-26T04:50:18.430Z,73.3
2022-08-26T04:51:19.428Z,73.1
2022-08-26T04:52:20.425Z,72.9
2022-08-26T04:53:21.443Z,72.6
2022-08-26T04:54:22.420Z,72.2
2022-08-26T04:55:25.388Z,72
2022-08-26T04:56:24.431Z,71.9
2022-08-26T04:57:25.452Z,71.8
2022-08-26T04:58:26.467Z,71.8
2022-08-26T04:59:27.465Z,71.7
2022-08-26T05:00:28.440Z,71.6
2022-08-26T05:01:29.529Z,71.6
2022-08-26T05:02:30.708Z,71.6
2022-08-26T05:03:32.482Z,71.9
2022-08-26T05:04:33.478Z,72.1
2022-08-26T05:05:34.448Z,72.2
2022-08-26T05:06:35.547Z,72.3
2022-08-26T05:07:36.458Z,72.6
2022-08-26T05:08:37.461Z,72.6
2022-08-26T05:09:38.493Z,72.7
2022-08-26T05:10:39.510Z,72.6
2022-08-26T05:11:40.491Z,72.5
2022-08-26T05:12:41.467Z,72.2
2022-08-26T05:13:42.471Z,72.2
2022-08-26T05:14:43.518Z,72.3
2022-08-26T05:15:44.529Z,72.2
2022-08-26T05:16:45.504Z,72.1
2022-08-26T05:17:46.554Z,72.2
2022-08-26T05:18:47.476Z,71.9
2022-08-26T05:19:48.515Z,71.6
2022-08-26T05:20:49.465Z,71.8
2022-08-26T05:21:50.704Z,71.7
2022-08-26T05:22:52.483Z,71.7
2022-08-26T05:23:53.483Z,71.5
2022-08-26T05:24:54.497Z,70.8
2022-08-26T05:25:59.034Z,70.8
2022-08-26T05:26:56.913Z,70.7
2022-08-26T05:27:58.480Z,70.7
2022-08-26T05:28:59.512Z,70.7
2022-08-26T05:30:00.499Z,70.7
2022-08-26T05:31:01.569Z,70.5
2022-08-26T05:32:02.578Z,70.1
2022-08-26T05:33:03.500Z,69.8
2022-08-26T05:34:04.502Z,69.7
2022-08-26T05:35:07.746Z,69.3
2022-08-26T05:36:06.527Z,69.2
2022-08-26T05:37:07.643Z,69
2022-08-26T05:38:12.562Z,68.8
2022-08-26T05:39:10.845Z,68.3
2022-08-26T05:40:11.641Z,67.9
2022-08-26T05:41:12.518Z,67.4
2022-08-26T05:42:13.588Z,67.1
2022-08-26T05:43:14.535Z,66.7
2022-08-26T05:44:15.516Z,66.1
2022-08-26T05:45:16.538Z,65.6
2022-08-26T05:46:17.583Z,65.2
2022-08-26T05:47:18.565Z,64.2
2022-08-26T05:48:22.609Z,62.8
2022-08-26T05:49:20.529Z,61.2
2022-08-26T05:50:21.515Z,60.3
2022-08-26T05:51:25.808Z,59.3
2022-08-26T05:52:24.596Z,58.3
2022-08-26T05:53:25.905Z,57.2
2022-08-26T05:54:25.534Z,56.1
2022-08-26T05:55:26.561Z,55.4
2022-08-26T05:56:27.799Z,55
2022-08-26T05:57:28.597Z,54.6
2022-08-26T05:58:29.533Z,53.7
2022-08-26T05:59:30.554Z,52.8
2022-08-26T06:00:31.550Z,52.3
2022-08-26T06:01:32.614Z,51.7
2022-08-26T06:02:33.723Z,50.7
2022-08-26T06:03:34.554Z,50.1
2022-08-26T06:04:35.546Z,49.3
2022-08-26T06:05:38.395Z,49.2
2022-08-26T06:06:37.552Z,49.2
2022-08-26T06:07:38.586Z,49.5
2022-08-26T06:08:39.567Z,49.6
2022-08-26T06:09:40.599Z,49.7
2022-08-26T06:10:41.580Z,50.3
2022-08-26T06:11:42.567Z,50.6
2022-08-26T06:12:43.602Z,50.5
2022-08-26T06:13:44.572Z,50
2022-08-26T06:14:45.579Z,49.9
2022-08-26T06:15:46.650Z,49.7
2022-08-26T06:16:47.590Z,50.2
2022-08-26T06:17:48.642Z,50.7
2022-08-26T06:18:52.573Z,50.9
2022-08-26T06:19:54.580Z,50.4
2022-08-26T06:20:57.503Z,49.7
2022-08-26T06:21:56.601Z,49
2022-08-26T06:22:57.662Z,48.6
2022-08-26T06:23:58.729Z,48.8
2022-08-26T06:25:00.671Z,49
2022-08-26T06:26:01.581Z,48.9
2022-08-26T06:27:02.665Z,48.6
2022-08-26T06:28:03.774Z,48.1
2022-08-26T06:29:05.581Z,47.7
2022-08-26T06:30:06.666Z,47.4
2022-08-26T06:31:07.839Z,47.1
2022-08-26T06:32:09.601Z,46.3
2022-08-26T06:33:10.696Z,45.9
2022-08-26T06:34:12.640Z,45
2022-08-26T06:35:13.741Z,44.3
2022-08-26T06:36:15.596Z,44.4
2022-08-26T06:37:16.685Z,44.4
2022-08-26T06:38:17.650Z,44.8
2022-08-26T06:39:18.808Z,44.5
2022-08-26T06:40:20.708Z,44.5
2022-08-26T06:41:21.723Z,45.2
2022-08-26T06:42:23.635Z,45.4
2022-08-26T06:43:24.609Z,45.1
2022-08-26T06:44:25.766Z,45.3
2022-08-26T06:45:27.633Z,45.6
2022-08-26T06:46:29.046Z,45.4
2022-08-26T06:47:31.086Z,44.8
2022-08-26T06:48:33.120Z,44.2
2022-08-26T06:49:34.964Z,44.3
2022-08-26T06:50:36.658Z,44.9
2022-08-26T06:51:37.621Z,45.6
2022-08-26T06:52:38.681Z,45.4
2022-08-26T06:53:39.692Z,45.3
2022-08-26T06:54:40.703Z,45.5
2022-08-26T06:55:41.650Z,45.8
2022-08-26T06:56:42.791Z,45.9
2022-08-26T06:57:44.679Z,46.3
2022-08-26T06:58:45.966Z,47
2022-08-26T06:59:47.655Z,47.3
2022-08-26T07:00:48.749Z,47.4
2022-08-26T07:01:50.042Z,47.5
2022-08-26T07:02:52.075Z,47.9
2022-08-26T07:03:54.172Z,47.1
2022-08-26T07:04:54.655Z,46.6
2022-08-26T07:05:55.660Z,45.8
2022-08-26T07:06:56.725Z,44.9
2022-08-26T07:07:57.106Z,44.8
2022-08-26T07:08:58.100Z,44.9
2022-08-26T07:09:59.677Z,44.4
2022-08-26T07:11:00.051Z,43.6
2022-08-26T07:12:01.127Z,43.3
2022-08-26T07:13:02.688Z,43.1
2022-08-26T07:14:03.787Z,41.8
2022-08-26T07:15:05.866Z,41.7
2022-08-26T07:16:07.729Z,42
2022-08-26T07:17:12.244Z,42.4
2022-08-26T07:18:09.700Z,43.3
2022-08-26T07:19:10.683Z,43.8
2022-08-26T07:20:11.080Z,43.9
2022-08-26T07:21:12.076Z,43
2022-08-26T07:22:13.111Z,42.7
2022-08-26T07:23:14.705Z,41.7
2022-08-26T07:24:15.792Z,40.8
2022-08-26T07:25:17.735Z,40.3
2022-08-26T07:26:18.699Z,40.4
2022-08-26T07:27:19.761Z,41
2022-08-26T07:28:20.735Z,41.2
2022-08-26T07:29:21.770Z,41.5
2022-08-26T07:30:22.202Z,42.1
2022-08-26T07:31:23.424Z,42.5
2022-08-26T07:32:24.103Z,42.4
2022-08-26T07:33:25.098Z,41.8
2022-08-26T07:34:26.307Z,40.7
2022-08-26T07:35:27.106Z,40
2022-08-26T07:36:28.102Z,39.2
2022-08-26T07:37:29.135Z,38.8
2022-08-26T07:38:30.737Z,38
2022-08-26T07:39:31.282Z,37.9
2022-08-26T07:40:32.186Z,38.3
2022-08-26T07:41:33.148Z,38.3
2022-08-26T07:42:34.825Z,38.1
2022-08-26T07:43:35.763Z,38.2
2022-08-26T07:44:36.726Z,38.8
2022-08-26T07:45:37.774Z,39
2022-08-26T07:46:38.792Z,39.5
2022-08-26T07:47:39.801Z,39.7
2022-08-26T07:48:40.131Z,40.1
2022-08-26T07:49:41.790Z,40.8
2022-08-26T07:50:49.643Z,40.8
2022-08-26T07:51:43.795Z,41.1
2022-08-26T07:52:44.287Z,41.1
2022-08-26T07:53:47.916Z,41.5
2022-08-26T07:54:46.202Z,41.7
2022-08-26T07:55:47.740Z,42.1
2022-08-26T07:56:48.753Z,42
2022-08-26T07:57:49.988Z,42.6
2022-08-26T07:58:52.223Z,43.5
2022-08-26T07:59:53.919Z,44.4
2022-08-26T08:00:53.913Z,44.6
2022-08-26T08:01:58.908Z,45.1
2022-08-26T08:03:02.033Z,44.9
2022-08-26T08:04:03.735Z,44.7
2022-08-26T08:05:05.359Z,44.3
2022-08-26T08:06:06.283Z,43.1
2022-08-26T08:07:07.412Z,41.9
2022-08-26T08:08:25.675Z,41
2022-08-26T08:09:09.162Z,40.4
2022-08-26T08:10:11.553Z,40.5
2022-08-26T08:11:11.172Z,40.3
2022-08-26T08:12:14.071Z,40
2022-08-26T08:13:13.192Z,40.1
2022-08-26T08:14:14.177Z,40.3
2022-08-26T08:15:15.243Z,40.1
2022-08-26T08:16:16.251Z,39.5
2022-08-26T08:17:17.176Z,39
2022-08-26T08:18:18.204Z,38.4
2022-08-26T08:19:19.216Z,39.2
2022-08-26T08:20:20.260Z,38.9
2022-08-26T08:21:23.754Z,38.9
2022-08-26T08:22:24.035Z,38.5
2022-08-26T08:23:25.226Z,38.3
2022-08-26T08:24:26.195Z,38.1
2022-08-26T08:25:27.233Z,38.4
2022-08-26T08:26:28.192Z,37.5
2022-08-26T08:27:29.202Z,37.4
2022-08-26T08:28:30.191Z,37.8
2022-08-26T08:29:31.211Z,38.1
2022-08-26T08:30:32.337Z,38.3
2022-08-26T08:32:02.827Z,37.6
2022-08-26T08:32:34.213Z,37.2
2022-08-26T08:33:35.222Z,37.2
2022-08-26T08:34:36.314Z,37.3
2022-08-26T08:35:37.242Z,36.3
2022-08-26T08:36:38.230Z,36
2022-08-26T08:37:39.218Z,35.7
2022-08-26T08:38:40.244Z,35.6
2022-08-26T08:39:41.398Z,36
2022-08-26T08:40:42.311Z,35.2
2022-08-26T08:41:43.247Z,35.2
2022-08-26T08:42:44.292Z,35.7
2022-08-26T08:43:45.230Z,34.7
2022-08-26T08:44:51.863Z,34
2022-08-26T08:45:47.321Z,33.9
2022-08-26T08:46:48.307Z,34.4
2022-08-26T08:47:49.431Z,35.1
2022-08-26T08:48:50.439Z,35
2022-08-26T08:49:51.261Z,35.4
2022-08-26T08:50:52.314Z,36
2022-08-26T08:51:53.250Z,36.1
2022-08-26T08:52:54.270Z,36.3
2022-08-26T08:53:55.266Z,36.6
2022-08-26T08:54:56.265Z,36.4
2022-08-26T08:55:57.279Z,36.2
2022-08-26T08:56:59.676Z,36.6
2022-08-26T08:58:02.308Z,36.1
2022-08-26T08:59:00.272Z,35.3
2022-08-26T09:00:01.294Z,34.9
2022-08-26T09:01:02.443Z,35
2022-08-26T09:02:03.371Z,34.7
2022-08-26T09:03:04.277Z,34.6
2022-08-26T09:04:06.419Z,33.8
2022-08-26T09:05:07.319Z,33.1
2022-08-26T09:06:08.324Z,33.3
2022-08-26T09:07:09.303Z,33.7
2022-08-26T09:08:11.212Z,34.3
2022-08-26T09:09:11.276Z,35
2022-08-26T09:10:12.291Z,35.3
2022-08-26T09:11:13.341Z,34.2
2022-08-26T09:12:14.300Z,34.8
2022-08-26T09:13:16.755Z,35.1
2022-08-26T09:14:17.164Z,35.6
2022-08-26T09:15:18.279Z,35.6
2022-08-26T09:16:20.379Z,34.7
2022-08-26T09:17:20.279Z,34.3
2022-08-26T09:18:21.361Z,34.2
2022-08-26T09:19:22.378Z,34
2022-08-26T09:20:23.317Z,33.5
2022-08-26T09:21:25.217Z,34
2022-08-26T09:22:25.383Z,34.6
2022-08-26T09:23:26.357Z,35.1
2022-08-26T09:24:28.299Z,35.9
2022-08-26T09:25:28.393Z,36.2
2022-08-26T09:26:29.694Z,36.3
2022-08-26T09:27:30.311Z,36
2022-08-26T09:28:31.362Z,36.3
2022-08-26T09:29:32.313Z,35.6
2022-08-26T09:30:33.439Z,35.4
2022-08-26T09:31:35.316Z,35.5
2022-08-26T09:32:35.603Z,35.9
2022-08-26T09:33:36.396Z,35.6
2022-08-26T09:34:37.359Z,34.8
2022-08-26T09:35:45.201Z,34
2022-08-26T09:36:46.155Z,33
2022-08-26T09:38:48.411Z,32.9
2022-08-26T09:39:49.208Z,33
2022-08-26T09:40:50.187Z,33.2
2022-08-26T09:41:51.212Z,33.3
2022-08-26T09:42:52.235Z,32.5
2022-08-26T09:43:53.262Z,32.1
2022-08-26T09:44:54.175Z,31.5
2022-08-26T09:45:58.552Z,31.1
2022-08-26T09:46:56.203Z,30.7
2022-08-26T09:47:57.235Z,31
2022-08-26T09:48:58.228Z,31.9
2022-08-26T09:49:59.194Z,32
2022-08-26T09:51:00.197Z,32.3
2022-08-26T09:52:01.205Z,33.3
2022-08-26T09:53:02.354Z,34.1
2022-08-26T09:54:03.282Z,34.7
2022-08-26T09:55:04.265Z,34.1
2022-08-26T09:56:05.273Z,33.8
2022-08-26T09:57:06.221Z,33.9
2022-08-26T09:58:07.820Z,34.2
2022-08-26T09:59:08.363Z,33.3
2022-08-26T10:00:09.279Z,33.3
2022-08-26T10:01:10.263Z,33.6
2022-08-26T10:02:12.359Z,33.1
2022-08-26T10:03:15.541Z,32.3
2022-08-26T10:04:14.299Z,31.4
2022-08-26T10:05:15.233Z,30.8
2022-08-26T10:06:16.295Z,30.6
2022-08-26T10:07:17.271Z,30.8
2022-08-26T10:08:18.282Z,30.6
2022-08-26T10:09:19.231Z,30.1
2022-08-26T10:10:20.250Z,30
2022-08-26T10:11:21.280Z,29.6
2022-08-26T10:12:22.263Z,29.5
2022-08-26T10:13:23.745Z,29.5
2022-08-26T10:14:24.314Z,30
2022-08-26T10:15:25.261Z,29.5
2022-08-26T10:16:28.469Z,29.6
2022-08-26T10:17:28.262Z,29.1
2022-08-26T10:18:33.744Z,28.6
2022-08-26T10:19:41.895Z,28.4
2022-08-26T10:20:32.272Z,28.3
2022-08-26T10:21:34.359Z,28.1
2022-08-26T10:22:35.236Z,28
2022-08-26T10:23:36.331Z,28.4
2022-08-26T10:24:38.355Z,29.3
2022-08-26T10:25:39.290Z,30.3
2022-08-26T10:26:40.322Z,30.9
2022-08-26T10:27:49.656Z,31.5
2022-08-26T10:28:42.312Z,31.3
2022-08-26T10:29:43.305Z,31.2
2022-08-26T10:30:44.319Z,30.8
2022-08-26T10:31:45.397Z,30.6
2022-08-26T10:32:46.284Z,30.8
2022-08-26T10:33:47.339Z,30.8
2022-08-26T10:34:48.295Z,30.9
2022-08-26T10:35:49.300Z,30.6
2022-08-26T10:37:10.915Z,31.1
2022-08-26T10:37:51.332Z,30.7
2022-08-26T10:38:52.359Z,31.5
2022-08-26T10:39:57.408Z,32
2022-08-26T10:40:54.335Z,32
2022-08-26T10:41:55.384Z,31.1
2022-08-26T10:42:56.352Z,30.8
2022-08-26T10:43:57.406Z,29.7
2022-08-26T10:44:58.418Z,28.8
2022-08-26T10:45:59.408Z,28.4
2022-08-26T10:47:00.313Z,28.1
2022-08-26T10:48:01.353Z,27.8
2022-08-26T10:49:03.178Z,28.5
2022-08-26T10:50:03.627Z,29.1
2022-08-26T10:51:04.341Z,28.8
2022-08-26T10:52:05.360Z,28.1
2022-08-26T10:53:06.357Z,28.4
2022-08-26T10:54:07.362Z,28.5
2022-08-26T10:55:08.506Z,28.9
2022-08-26T10:56:15.638Z,28.9
2022-08-26T10:57:10.383Z,29.1
2022-08-26T10:58:11.562Z,29.1
2022-08-26T10:59:12.710Z,29.1
2022-08-26T11:00:13.519Z,29.8
2022-08-26T11:01:14.370Z,30.1
2022-08-26T11:02:15.368Z,30
2022-08-26T11:03:21.777Z,30.2
2022-08-26T11:04:17.404Z,29.7
2022-08-26T11:05:18.630Z,29.7
2022-08-26T11:06:19.363Z,29.8
2022-08-26T11:07:20.385Z,29.3
2022-08-26T11:08:21.403Z,29.4
2022-08-26T11:09:22.415Z,30.1
2022-08-26T11:10:23.409Z,30.2
2022-08-26T11:11:24.359Z,30.4
2022-08-26T11:12:25.408Z,30
2022-08-26T11:13:26.360Z,29.1
2022-08-26T11:14:28.623Z,28.7
2022-08-26T11:15:28.420Z,28.7
2022-08-26T11:16:29.452Z,28.2
2022-08-26T11:17:30.425Z,27.6
2022-08-26T11:18:31.409Z,27
2022-08-26T11:19:45.547Z,27.2
2022-08-26T11:20:33.430Z,27.5
2022-08-26T11:21:34.401Z,26.6
2022-08-26T11:22:35.399Z,26.2
2022-08-26T11:23:36.387Z,25.8
2022-08-26T11:24:37.377Z,26.3
2022-08-26T11:25:38.427Z,26.4
2022-08-26T11:26:55.853Z,26.6
2022-08-26T11:27:40.454Z,26.8
2022-08-26T11:28:44.064Z,27
2022-08-26T11:29:42.400Z,27.4
2022-08-26T11:30:43.439Z,26.9
2022-08-26T11:31:44.494Z,26.9
2022-08-26T11:32:45.404Z,27.4
2022-08-26T11:33:46.411Z,27.8
2022-08-26T11:34:47.386Z,27.4
2022-08-26T11:35:48.462Z,26.9
2022-08-26T11:36:49.430Z,27
2022-08-26T11:37:50.426Z,26.8
2022-08-26T11:38:51.417Z,26.6
2022-08-26T11:39:54.936Z,26.4
2022-08-26T11:40:53.834Z,26.7
2022-08-26T11:41:54.451Z,27.3
2022-08-26T11:42:55.599Z,27.3
2022-08-26T11:43:56.615Z,27.4
2022-08-26T11:44:58.141Z,27.1
2022-08-26T11:45:58.522Z,26.7
2022-08-26T11:46:59.557Z,27.1
2022-08-26T11:48:00.516Z,26.2
2022-08-26T11:49:01.527Z,26.3
2022-08-26T11:50:02.899Z,26.4
2022-08-26T11:51:03.469Z,26.7
2022-08-26T11:52:04.552Z,26.5
2022-08-26T11:53:06.081Z,26.8
2022-08-26T11:54:06.513Z,27
2022-08-26T11:55:07.480Z,26.9
2022-08-26T11:56:08.445Z,27.6
2022-08-26T11:57:11.875Z,27.9
2022-08-26T11:58:10.655Z,27.9
2022-08-26T11:59:11.491Z,28.1
2022-08-26T12:00:13.658Z,28.3
2022-08-26T12:01:13.440Z,28.5
2022-08-26T12:02:14.453Z,27.5
2022-08-26T12:03:15.518Z,27.5
2022-08-26T12:04:16.658Z,27.5
2022-08-26T12:05:17.496Z,27.8
2022-08-26T12:06:18.511Z,27.5
2022-08-26T12:07:23.770Z,27.5
2022-08-26T12:08:20.519Z,27.5
2022-08-26T12:09:21.540Z,27.7
2022-08-26T12:10:22.510Z,27.6
2022-08-26T12:11:23.476Z,27.7
2022-08-26T12:12:24.498Z,27
2022-08-26T12:13:26.241Z,27.4
2022-08-26T12:14:27.291Z,27.1
2022-08-26T12:15:27.503Z,27.4
2022-08-26T12:16:28.512Z,27.9
2022-08-26T12:17:29.644Z,27.6
2022-08-26T12:18:30.531Z,27.7
2022-08-26T12:19:33.499Z,27.8
2022-08-26T12:20:34.909Z,27.4
2022-08-26T12:21:36.784Z,27.4
2022-08-26T12:22:37.528Z,27.9
2022-08-26T12:23:39.594Z,28.6
2022-08-26T12:24:41.879Z,27.5
2022-08-26T12:25:42.511Z,28.2
2022-08-26T12:26:44.004Z,28.3
2022-08-26T12:27:44.789Z,28.4
2022-08-26T12:28:45.535Z,28.5
2022-08-26T12:29:48.422Z,28.8
2022-08-26T12:30:47.576Z,28.7
2022-08-26T12:31:48.591Z,28.5
2022-08-26T12:32:50.973Z,28.6
2022-08-26T12:33:51.713Z,28.8
2022-08-26T12:34:52.750Z,27.2
2022-08-26T12:35:56.445Z,26.3
2022-08-26T12:36:55.839Z,26.3
2022-08-26T12:37:56.825Z,26.5
2022-08-26T12:38:58.536Z,27.1
2022-08-26T12:39:58.767Z,27.3
2022-08-26T12:41:00.021Z,28.2
2022-08-26T12:42:00.897Z,28
2022-08-26T12:43:01.769Z,27.8
2022-08-26T12:44:03.584Z,27.6
2022-08-26T12:45:05.613Z,27.6
2022-08-26T12:46:06.955Z,27.8
2022-08-26T12:47:08.642Z,27.2
2022-08-26T12:48:12.817Z,26.8
2022-08-26T12:49:17.211Z,28
2022-08-26T12:50:19.121Z,27.6
2022-08-26T12:51:19.741Z,27.3
2022-08-26T12:52:22.192Z,27.6
2022-08-26T12:53:25.362Z,28
2022-08-26T12:54:28.258Z,27.9
2022-08-26T12:55:32.078Z,27.9
2022-08-26T12:56:32.750Z,28.4
2022-08-26T12:57:33.754Z,28.2
2022-08-26T12:58:36.044Z,27.5
2022-08-26T12:59:36.770Z,27.7
2022-08-26T13:00:37.830Z,28.3
2022-08-26T13:01:40.372Z,28
2022-08-26T13:02:40.777Z,28.2
2022-08-26T13:03:42.497Z,28.7
2022-08-26T13:04:44.670Z,29.3
2022-08-26T13:05:46.426Z,28.9
2022-08-26T13:06:48.053Z,28.8
2022-08-26T13:07:48.811Z,28.7
2022-08-26T13:08:49.964Z,28.6
2022-08-26T13:09:51.969Z,29.1
2022-08-26T13:10:52.785Z,29
2022-08-26T13:11:54.278Z,29.2
2022-08-26T13:12:55.462Z,28.3
2022-08-26T13:13:56.783Z,28.4
2022-08-26T13:14:57.815Z,28.7
2022-08-26T13:15:59.079Z,29
2022-08-26T13:17:00.853Z,29.6
2022-08-26T13:18:02.675Z,29.5
2022-08-26T13:19:05.273Z,28.6
2022-08-26T13:20:05.863Z,28.9
2022-08-26T13:21:06.839Z,28.9
2022-08-26T13:22:09.379Z,28.8
2022-08-26T13:23:11.401Z,29.1
2022-08-26T13:24:12.871Z,28.7
2022-08-26T13:25:14.390Z,28.1
2022-08-26T13:26:16.133Z,27.8
2022-08-26T13:27:17.811Z,27.8
2022-08-26T13:28:18.843Z,27.2
2022-08-26T13:29:19.917Z,27.2
2022-08-26T13:30:20.870Z,27.1
2022-08-26T13:31:21.882Z,27.5
2022-08-26T13:32:26.883Z,27.9
2022-08-26T13:33:23.840Z,28
2022-08-26T13:34:24.847Z,28.9
2022-08-26T13:35:25.843Z,29.3
2022-08-26T13:36:26.970Z,29.1
2022-08-26T13:37:34.086Z,28.9
2022-08-26T13:38:33.065Z,28.9
2022-08-26T13:39:29.880Z,28.6
2022-08-26T13:40:34.445Z,28.7
2022-08-26T13:41:31.839Z,29.3
2022-08-26T13:42:32.862Z,28.9